Terminal Aerodrome Forecast
Issued by NWS

Home | Current Version | Previous Version | Text Only | Print | Product List | Glossary On
Versions: 1 2 3 4 5 6 7 8 9 10 11 12 13 14 15
000
FTUS43 KIWX 310500
TAFSBN
TAF
KSBN 310531Z 3106/0106 25005KT P6SM BKN035 OVC050
     FM310900 31012G20KT 5SM -SHRA BR OVC030
     FM311200 32014G26KT 6SM -SHRA BR OVC015
      TEMPO 3114/3118 3SM SHRA BR BKN008 OVC015
     FM312000 34020G33KT P6SM -SHRASN OVC020
     FM010200 36015G22KT P6SM OVC020=

USA.gov is the U.S. government's official web portal to all federal, state and local government web resources and services.